Time;durP1;ratioP1;P1;durP2;ratioP2;P2;SDS_P1;SDS_P2;PMS_P1;PMS_P2;Temp;Humidity;BMP_temperature;BMP_pressure;BME280_temperature;BME280_humidity;BME280_pressure;Samples;Min_cycle;Max_cycle;Signal;HPM_P1;HPM_P2
2023/04/17 00:01:43;;;;;;;24.77;9.70;;;8.20;99.90;;;;;;5013580;28;20585;-71
2023/04/17 00:04:09;;;;;;;26.10;10.23;;;8.20;99.90;;;;;;5017362;28;20037;-70
2023/04/17 00:06:36;;;;;;;;;;;8.20;99.90;;;;;;5013861;28;20529;-72
2023/04/17 00:09:01;;;;;;;18.88;9.25;;;8.20;99.90;;;;;;5015607;28;19932;-72
2023/04/17 00:11:27;;;;;;;25.77;11.03;;;8.20;99.90;;;;;;5011578;28;20550;-72
2023/04/17 00:13:53;;;;;;;20.53;9.87;;;8.20;99.90;;;;;;5015331;28;20037;-71
2023/04/17 00:16:18;;;;;;;22.53;10.13;;;8.20;99.90;;;;;;5009006;28;20369;-71
2023/04/17 00:18:44;;;;;;;21.03;10.40;;;8.10;99.90;;;;;;5017214;28;20045;-72
2023/04/17 00:21:09;;;;;;;25.13;11.00;;;8.10;99.90;;;;;;5015192;28;20040;-72
2023/04/17 00:23:35;;;;;;;20.70;9.73;;;8.10;99.90;;;;;;5031123;28;20041;-71
2023/04/17 00:26:01;;;;;;;20.97;10.43;;;8.10;99.90;;;;;;4998641;28;20049;-72
2023/04/17 00:28:26;;;;;;;24.10;10.50;;;8.10;99.90;;;;;;5011996;28;20080;-72
2023/04/17 00:30:52;;;;;;;21.03;10.57;;;8.20;99.90;;;;;;5028225;28;20429;-72
2023/04/17 00:33:18;;;;;;;23.83;10.77;;;8.10;99.90;;;;;;5031322;28;20041;-70
2023/04/17 00:35:43;;;;;;;27.52;10.48;;;8.10;99.90;;;;;;5026383;28;20042;-72
2023/04/17 00:38:09;;;;;;;25.17;10.83;;;8.10;99.90;;;;;;4999214;28;20061;-72
2023/04/17 00:40:35;;;;;;;22.75;10.43;;;8.10;99.90;;;;;;5008247;28;20041;-71
2023/04/17 00:43:01;;;;;;;25.83;10.83;;;8.10;99.90;;;;;;5012996;28;20315;-71
2023/04/17 00:45:28;;;;;;;23.20;11.25;;;8.10;99.90;;;;;;5011013;28;20687;-72
2023/04/17 00:47:54;;;;;;;;;;;8.10;99.90;;;;;;5012098;28;20119;-72
2023/04/17 00:50:22;;;;;;;25.65;10.32;;;8.00;99.90;;;;;;5011207;28;19995;-71
2023/04/17 00:52:51;;;;;;;26.48;10.70;;;8.10;99.90;;;;;;4992459;28;20047;-72
2023/04/17 00:55:17;;;;;;;23.20;10.00;;;8.10;99.90;;;;;;5010108;28;20029;-71
2023/04/17 00:57:43;;;;;;;23.80;10.80;;;8.10;99.90;;;;;;5013094;28;20655;-72
2023/04/17 01:00:10;;;;;;;25.10;11.20;;;8.10;99.90;;;;;;5014036;28;20072;-71
2023/04/17 01:02:36;;;;;;;23.30;10.57;;;8.10;99.90;;;;;;5016854;28;20049;-71
2023/04/17 01:05:05;;;;;;;19.25;10.02;;;8.10;99.90;;;;;;5026595;28;20117;-72
2023/04/17 01:07:30;;;;;;;25.25;10.85;;;8.00;99.90;;;;;;5012064;28;20068;-72
2023/04/17 01:09:56;;;;;;;23.90;10.20;;;8.00;99.90;;;;;;5023353;28;20036;-72
2023/04/17 01:12:23;;;;;;;23.13;10.77;;;8.00;99.90;;;;;;5014955;28;20033;-71
2023/04/17 01:14:58;;;;;;;24.58;11.32;;;8.00;99.90;;;;;;4999554;28;20491;-72
2023/04/17 01:17:27;;;;;;;20.83;10.38;;;8.00;99.90;;;;;;4998862;28;20449;-72
2023/04/17 01:19:53;;;;;;;22.08;10.15;;;8.10;99.90;;;;;;5019842;28;20073;-72
2023/04/17 01:22:19;;;;;;;23.23;10.73;;;8.00;99.90;;;;;;5013177;28;20064;-72
2023/04/17 01:24:46;;;;;;;21.75;10.15;;;8.00;99.90;;;;;;5019032;28;20436;-72
2023/04/17 01:27:14;;;;;;;;;;;8.00;99.90;;;;;;5016690;28;20124;-72
2023/04/17 01:29:41;;;;;;;20.02;9.48;;;8.00;99.90;;;;;;5032811;28;19985;-71
2023/04/17 01:32:07;;;;;;;;;;;7.90;99.90;;;;;;5016610;28;20068;-71
2023/04/17 01:34:33;;;;;;;21.92;10.30;;;8.00;99.90;;;;;;5033291;28;20401;-72
2023/04/17 01:36:58;;;;;;;24.25;10.25;;;8.00;99.90;;;;;;5029077;28;20398;-72
2023/04/17 01:39:24;;;;;;;20.43;10.93;;;7.90;99.90;;;;;;5022198;28;20049;-72
2023/04/17 01:41:50;;;;;;;20.87;10.33;;;8.00;99.90;;;;;;5010676;28;20483;-71
2023/04/17 01:44:16;;;;;;;23.17;11.15;;;7.90;99.90;;;;;;5007362;28;20530;-72
2023/04/17 01:46:42;;;;;;;24.13;11.40;;;7.90;99.90;;;;;;5013309;28;20053;-72
2023/04/17 01:49:08;;;;;;;21.90;10.60;;;7.90;99.90;;;;;;5008681;28;20063;-72
2023/04/17 01:51:33;;;;;;;22.73;11.10;;;7.90;99.90;;;;;;5013263;28;20048;-72
2023/04/17 01:53:59;;;;;;;23.23;10.53;;;7.90;99.90;;;;;;5029815;28;20029;-72
2023/04/17 01:56:25;;;;;;;20.95;10.02;;;7.90;99.90;;;;;;5007485;28;20121;-72
2023/04/17 01:58:51;;;;;;;23.00;10.52;;;7.90;99.90;;;;;;5023838;28;20093;-72
2023/04/17 02:01:17;;;;;;;21.80;9.85;;;7.90;99.90;;;;;;5026466;28;20061;-71
2023/04/17 02:03:42;;;;;;;24.50;11.50;;;7.90;99.90;;;;;;5027735;28;20045;-71
2023/04/17 02:06:08;;;;;;;24.87;11.50;;;7.90;99.90;;;;;;5013390;28;20099;-72
2023/04/17 02:08:34;;;;;;;22.67;10.70;;;7.90;99.90;;;;;;5010516;28;20053;-72
2023/04/17 02:11:00;;;;;;;22.20;10.80;;;7.90;99.90;;;;;;5011451;28;20045;-72
2023/04/17 02:13:25;;;;;;;24.07;11.90;;;7.80;99.90;;;;;;5047675;22;20040;-68
2023/04/17 02:15:51;;;;;;;26.30;12.35;;;7.80;99.90;;;;;;5045196;28;20048;-68
2023/04/17 02:18:17;;;;;;;27.53;11.67;;;7.90;99.90;;;;;;5059213;28;20037;-68
2023/04/17 02:20:42;;;;;;;25.53;11.87;;;7.80;99.90;;;;;;5037708;28;20052;-68
2023/04/17 02:23:08;;;;;;;26.93;12.60;;;7.80;99.90;;;;;;5048779;28;20477;-68
2023/04/17 02:25:34;;;;;;;24.75;12.73;;;7.80;99.90;;;;;;5045963;28;20162;-68
2023/04/17 02:28:00;;;;;;;25.87;11.90;;;7.80;99.90;;;;;;5043587;28;20071;-68
2023/04/17 02:30:26;;;;;;;24.67;12.20;;;7.80;99.90;;;;;;5042237;28;20873;-68
2023/04/17 02:32:53;;;;;;;30.35;11.85;;;7.90;99.90;;;;;;5029927;28;20071;-68
2023/04/17 02:35:24;;;;;;;29.33;12.07;;;8.00;99.90;;;;;;5040964;28;20478;-68
2023/04/17 02:37:53;;;;;;;24.65;11.80;;;7.90;99.90;;;;;;5044245;28;20064;-68
2023/04/17 02:40:19;;;;;;;24.90;11.63;;;7.90;99.90;;;;;;5042524;28;20040;-68
2023/04/17 02:42:45;;;;;;;24.52;10.63;;;7.90;99.90;;;;;;5035923;28;20048;-68
2023/04/17 02:45:11;;;;;;;28.73;12.53;;;7.90;99.90;;;;;;5042941;28;20040;-68
2023/04/17 02:47:37;;;;;;;28.27;11.27;;;7.80;99.90;;;;;;5047581;28;20471;-68
2023/04/17 02:50:03;;;;;;;24.75;11.07;;;7.90;99.90;;;;;;5046217;28;20797;-68
2023/04/17 02:52:30;;;;;;;25.52;10.32;;;7.80;99.90;;;;;;5045539;28;20028;-68
2023/04/17 02:54:56;;;;;;;22.60;10.30;;;7.80;99.90;;;;;;5046608;28;20044;-68
2023/04/17 02:57:23;;;;;;;21.48;10.52;;;7.70;99.90;;;;;;5047395;28;20036;-68
2023/04/17 02:59:49;;;;;;;23.45;10.20;;;7.70;99.90;;;;;;5027152;28;20051;-68
2023/04/17 03:02:20;;;;;;;23.13;10.60;;;7.80;99.90;;;;;;5041509;28;20485;-68
2023/04/17 03:04:49;;;;;;;24.85;11.00;;;7.70;99.90;;;;;;5043384;28;20075;-68
2023/04/17 03:07:18;;;;;;;22.75;10.75;;;7.80;99.90;;;;;;5046512;28;20044;-68
2023/04/17 03:09:48;;;;;;;21.77;10.55;;;7.80;99.90;;;;;;5033946;28;20048;-68
2023/04/17 03:12:14;;;;;;;22.05;10.00;;;7.70;99.90;;;;;;5062810;28;20071;-68
2023/04/17 03:14:40;;;;;;;;;;;7.80;99.90;;;;;;5041103;28;20424;-68
2023/04/17 03:17:06;;;;;;;24.88;10.30;;;7.80;99.90;;;;;;5042769;28;19920;-68
2023/04/17 03:19:32;;;;;;;30.70;11.40;;;7.80;99.90;;;;;;5045458;28;20146;-68
2023/04/17 03:21:58;;;;;;;24.17;11.50;;;7.80;99.90;;;;;;5044837;28;20041;-68
2023/04/17 03:24:23;;;;;;;28.27;11.27;;;7.80;99.90;;;;;;5060069;28;20462;-68
2023/04/17 03:26:49;;;;;;;22.60;10.77;;;7.80;99.90;;;;;;5045567;28;20067;-68
2023/04/17 03:29:15;;;;;;;27.42;11.68;;;7.70;99.90;;;;;;5030832;28;20307;-68
2023/04/17 03:31:40;;;;;;;22.83;10.03;;;7.80;99.90;;;;;;5051969;28;20037;-68
2023/04/17 03:34:06;;;;;;;22.87;10.30;;;7.80;99.90;;;;;;5046777;28;20040;-68
2023/04/17 03:36:32;;;;;;;21.63;10.50;;;7.80;99.90;;;;;;5030912;28;20548;-68
2023/04/17 03:38:57;;;;;;;24.27;10.63;;;7.80;99.90;;;;;;5032569;28;20194;-68
2023/04/17 03:41:26;;;;;;;26.13;10.53;;;7.80;99.90;;;;;;5059396;28;20037;-68
2023/04/17 03:43:51;;;;;;;23.42;11.13;;;7.80;99.90;;;;;;5047549;28;20063;-68
2023/04/17 03:46:17;;;;;;;21.27;10.17;;;7.80;99.90;;;;;;5043353;28;20135;-68
2023/04/17 03:48:42;;;;;;;30.73;10.73;;;7.70;99.90;;;;;;5047694;28;20537;-68
2023/04/17 03:51:08;;;;;;;20.47;9.67;;;7.70;99.90;;;;;;5062223;28;20036;-68
2023/04/17 03:53:34;;;;;;;23.47;10.70;;;7.80;99.90;;;;;;5046533;28;20052;-68
2023/04/17 03:56:00;;;;;;;25.17;10.13;;;7.70;99.90;;;;;;5045057;28;20032;-68
2023/04/17 03:58:26;;;;;;;27.85;11.88;;;7.70;99.90;;;;;;5043506;28;20071;-68
2023/04/17 04:00:57;;;;;;;28.53;10.30;;;7.70;99.90;;;;;;5045591;28;20331;-68
2023/04/17 04:03:23;;;;;;;29.63;11.80;;;7.70;99.90;;;;;;5062793;28;20674;-68
2023/04/17 04:05:49;;;;;;;25.42;11.02;;;7.70;99.90;;;;;;5041024;28;20040;-68
2023/04/17 04:08:17;;;;;;;24.98;11.55;;;7.70;99.90;;;;;;5062215;28;20132;-68
2023/04/17 04:10:43;;;;;;;30.60;11.98;;;7.60;99.90;;;;;;5049176;28;20067;-68
2023/04/17 04:13:10;;;;;;;26.75;10.30;;;7.70;99.90;;;;;;5053947;28;20036;-68
2023/04/17 04:15:35;;;;;;;25.27;10.82;;;7.70;99.90;;;;;;5063086;28;20516;-68
2023/04/17 04:18:01;;;;;;;30.67;10.90;;;7.60;99.90;;;;;;5051262;28;20040;-68
2023/04/17 04:20:30;;;;;;;31.67;10.35;;;7.60;99.90;;;;;;5067064;28;20040;-68
2023/04/17 04:22:58;;;;;;;30.73;10.48;;;7.60;99.90;;;;;;5064032;28;20056;-68
2023/04/17 04:25:24;;;;;;;29.25;10.80;;;7.60;99.90;;;;;;5046324;28;20044;-68
2023/04/17 04:27:50;;;;;;;;;;;7.60;99.90;;;;;;5048724;28;20048;-68
2023/04/17 04:30:15;;;;;;;24.63;9.27;;;7.60;99.90;;;;;;5038949;28;20492;-68
2023/04/17 04:32:45;;;;;;;27.10;10.33;;;7.60;99.90;;;;;;5066141;28;20147;-68
2023/04/17 04:35:11;;;;;;;29.15;9.85;;;7.60;99.90;;;;;;5027520;28;20071;-68
2023/04/17 04:37:37;;;;;;;27.83;9.98;;;7.60;99.90;;;;;;5038565;28;20042;-68
2023/04/17 04:40:09;;;;;;;32.17;10.50;;;7.50;99.90;;;;;;5046888;28;20463;-68
2023/04/17 04:42:36;;;;;;;31.83;9.93;;;7.50;99.90;;;;;;5050678;28;20067;-68
2023/04/17 04:45:05;;;;;;;26.95;9.18;;;7.50;99.90;;;;;;5042161;28;20047;-68
2023/04/17 04:47:31;;;;;;;22.45;8.70;;;7.40;99.90;;;;;;5048155;28;20036;-68
2023/04/17 04:49:57;;;;;;;31.10;9.30;;;7.40;99.90;;;;;;5064280;28;20310;-68
2023/04/17 04:52:27;;;;;;;23.70;9.63;;;7.40;99.90;;;;;;5066174;28;20036;-68
2023/04/17 04:54:53;;;;;;;22.17;9.50;;;7.40;99.90;;;;;;5050309;28;20051;-68
2023/04/17 04:57:18;;;;;;;25.15;9.77;;;7.40;99.90;;;;;;5068006;28;20037;-68
2023/04/17 04:59:44;;;;;;;29.83;10.60;;;7.30;99.90;;;;;;5068648;28;20044;-68
2023/04/17 05:02:10;;;;;;;27.37;9.10;;;7.30;99.90;;;;;;5065581;28;20119;-68
2023/04/17 05:04:35;;;;;;;21.40;9.57;;;7.40;99.90;;;;;;5027816;28;20522;-68
2023/04/17 05:07:03;;;;;;;31.47;9.80;;;7.30;99.90;;;;;;5060628;28;20039;-68
2023/04/17 05:09:32;;;;;;;21.83;8.93;;;7.40;99.90;;;;;;5029553;28;20381;-68
2023/04/17 05:11:58;;;;;;;21.80;10.15;;;7.40;99.90;;;;;;5036495;28;20059;-68
2023/04/17 05:14:24;;;;;;;21.97;8.87;;;7.40;99.90;;;;;;5043030;28;20040;-68
2023/04/17 05:16:49;;;;;;;27.97;10.63;;;7.40;99.90;;;;;;5040311;28;20040;-68
2023/04/17 05:19:15;;;;;;;32.47;10.43;;;7.40;99.90;;;;;;5049732;28;20470;-68
2023/04/17 05:21:41;;;;;;;28.17;11.23;;;7.40;99.90;;;;;;5065462;28;20106;-68
2023/04/17 05:24:07;;;;;;;27.30;10.53;;;7.40;99.90;;;;;;5066138;28;20072;-68
2023/04/17 05:26:32;;;;;;;31.87;11.80;;;7.40;99.90;;;;;;5056820;28;20135;-68
2023/04/17 05:28:58;;;;;;;27.70;10.43;;;7.50;99.90;;;;;;5053547;28;20082;-70
2023/04/17 05:31:23;;;;;;;24.67;10.37;;;7.50;99.90;;;;;;5036928;28;20076;-68
2023/04/17 05:33:49;;;;;;;30.53;11.13;;;7.50;99.90;;;;;;5063606;28;20055;-68
2023/04/17 05:36:15;;;;;;;31.07;11.37;;;7.50;99.90;;;;;;5042816;28;20032;-68
2023/04/17 05:38:43;;;;;;;33.60;11.15;;;7.40;99.90;;;;;;5057848;28;20552;-68
2023/04/17 05:41:09;;;;;;;32.38;13.23;;;7.50;99.90;;;;;;5033021;28;20040;-68
2023/04/17 05:43:34;;;;;;;31.05;11.73;;;7.50;99.90;;;;;;5042823;28;20051;-71
2023/04/17 05:46:03;;;;;;;28.20;11.57;;;7.50;99.90;;;;;;5047125;28;20059;-69
2023/04/17 05:48:29;;;;;;;28.85;10.85;;;7.50;99.90;;;;;;5049326;28;20418;-70
2023/04/17 05:50:55;;;;;;;31.13;12.20;;;7.50;99.90;;;;;;5026933;28;20086;-68
2023/04/17 05:53:20;;;;;;;34.65;11.77;;;7.50;99.90;;;;;;5061549;28;20048;-68
2023/04/17 05:55:46;;;;;;;30.93;11.30;;;7.50;99.90;;;;;;5063612;28;20036;-71
2023/04/17 05:58:11;;;;;;;36.27;12.20;;;7.50;99.90;;;;;;5046316;28;20553;-69
2023/04/17 06:00:37;;;;;;;35.97;12.70;;;7.60;99.90;;;;;;5059815;28;20080;-68
2023/04/17 06:03:04;;;;;;;35.13;12.50;;;7.60;99.90;;;;;;5044332;28;20359;-69
2023/04/17 06:05:30;;;;;;;31.70;10.55;;;7.60;99.90;;;;;;5059272;28;20072;-68
2023/04/17 06:07:56;;;;;;;20.98;9.15;;;7.70;99.90;;;;;;5045073;28;20079;-70
2023/04/17 06:10:21;;;;;;;30.03;10.57;;;7.70;99.90;;;;;;5048910;28;20120;-69
2023/04/17 06:12:47;;;;;;;20.20;8.67;;;7.70;99.90;;;;;;5065502;28;20037;-75
2023/04/17 06:15:13;;;;;;;23.90;9.67;;;7.60;99.90;;;;;;5048603;28;20048;-68
2023/04/17 06:17:39;;;;;;;20.80;9.30;;;7.60;99.90;;;;;;5053319;28;20051;-68
2023/04/17 06:20:09;;;;;;;22.33;10.60;;;7.60;99.90;;;;;;5044155;28;20040;-68
2023/04/17 06:22:35;;;;;;;32.28;10.93;;;7.60;99.90;;;;;;5048540;28;20525;-68
2023/04/17 06:25:02;;;;;;;33.75;11.10;;;7.70;99.90;;;;;;5059342;28;20105;-68
2023/04/17 06:27:27;;;;;;;;;;;7.70;99.90;;;;;;5046019;28;20144;-69
2023/04/17 06:29:53;;;;;;;32.55;10.48;;;7.70;99.90;;;;;;5042904;28;20018;-67
2023/04/17 06:32:19;;;;;;;22.70;10.10;;;7.80;99.90;;;;;;5058066;28;20301;-68
2023/04/17 06:34:44;;;;;;;23.57;10.57;;;7.80;99.90;;;;;;5057329;28;20378;-68
2023/04/17 06:37:10;;;;;;;31.40;12.02;;;7.80;99.90;;;;;;5033744;28;20081;-67
2023/04/17 06:39:36;;;;;;;29.63;11.47;;;7.90;99.90;;;;;;5044704;28;20098;-68
2023/04/17 06:42:02;;;;;;;27.27;11.30;;;7.90;99.90;;;;;;5042343;28;20040;-70
2023/04/17 06:44:27;;;;;;;26.88;10.80;;;8.00;99.90;;;;;;5029233;28;20132;-68
2023/04/17 06:46:53;;;;;;;24.80;10.27;;;8.00;99.90;;;;;;5049411;28;20135;-68
2023/04/17 06:49:19;;;;;;;29.27;11.90;;;8.00;99.90;;;;;;5064717;28;20043;-68
2023/04/17 06:51:46;;;;;;;25.27;11.18;;;8.10;99.90;;;;;;5043139;28;20297;-68
2023/04/17 06:54:12;;;;;;;;;;;8.10;99.90;;;;;;5048920;28;20055;-68
2023/04/17 06:56:38;;;;;;;27.23;11.45;;;8.10;99.90;;;;;;5062841;28;19990;-68
2023/04/17 06:59:03;;;;;;;24.87;10.87;;;8.20;99.90;;;;;;5061962;28;20052;-68
2023/04/17 07:01:30;;;;;;;24.03;11.20;;;8.20;99.90;;;;;;5039287;28;20044;-68
2023/04/17 07:03:56;;;;;;;32.63;12.57;;;8.20;99.90;;;;;;5049147;28;20060;-68
2023/04/17 07:06:25;;;;;;;26.48;11.27;;;8.30;99.90;;;;;;5032696;28;20049;-68
2023/04/17 07:08:51;;;;;;;25.92;10.38;;;8.30;99.90;;;;;;5031907;28;20052;-68
2023/04/17 07:11:16;;;;;;;25.73;10.20;;;8.40;99.90;;;;;;5043337;28;20033;-68
2023/04/17 07:13:42;;;;;;;25.20;11.10;;;8.40;99.90;;;;;;5062735;28;20422;-68
2023/04/17 07:16:08;;;;;;;24.03;10.60;;;8.50;99.90;;;;;;5040868;28;20051;-68
2023/04/17 07:18:33;;;;;;;21.93;11.10;;;8.60;99.90;;;;;;5045546;28;20067;-68
2023/04/17 07:21:00;;;;;;;24.73;10.77;;;8.60;99.90;;;;;;5047892;28;20036;-68
2023/04/17 07:23:25;;;;;;;22.08;11.25;;;8.70;99.90;;;;;;5028377;28;20086;-68
2023/04/17 07:25:51;;;;;;;28.67;11.03;;;8.70;99.90;;;;;;5061295;28;20445;-68
2023/04/17 07:28:17;;;;;;;22.83;10.83;;;8.80;99.90;;;;;;5061640;28;20037;-68
2023/04/17 07:30:43;;;;;;;24.08;10.75;;;8.80;99.90;;;;;;5061844;28;20063;-68
2023/04/17 07:33:09;;;;;;;27.70;9.43;;;8.90;99.90;;;;;;5047286;28;20044;-68
2023/04/17 07:35:35;;;;;;;23.88;10.50;;;9.00;99.90;;;;;;5040129;28;20048;-68
2023/04/17 07:38:02;;;;;;;23.00;10.47;;;9.00;99.90;;;;;;5036736;28;20033;-68
2023/04/17 07:40:28;;;;;;;25.98;10.32;;;9.00;99.90;;;;;;5042318;28;20036;-68
2023/04/17 07:42:55;;;;;;;18.52;8.68;;;9.00;99.90;;;;;;5060251;28;20043;-68
2023/04/17 07:45:21;;;;;;;;;;;8.90;99.90;;;;;;5048957;28;20587;-68
2023/04/17 07:47:47;;;;;;;16.80;8.27;;;8.90;99.90;;;;;;5063274;28;20343;-68
2023/04/17 07:50:13;;;;;;;22.10;9.37;;;9.10;99.90;;;;;;5046753;28;20060;-68
2023/04/17 07:52:38;;;;;;;15.70;8.30;;;9.00;99.90;;;;;;5043248;28;20360;-68
2023/04/17 07:55:05;;;;;;;16.92;9.23;;;9.10;99.90;;;;;;5047850;28;20512;-68
2023/04/17 07:57:31;;;;;;;19.50;9.02;;;9.10;99.90;;;;;;5048790;28;20200;-68
2023/04/17 07:59:57;;;;;;;19.48;9.77;;;9.10;99.90;;;;;;5047745;28;20553;-68
2023/04/17 08:02:23;;;;;;;18.45;8.65;;;9.10;99.90;;;;;;5065435;28;20044;-68
2023/04/17 08:04:48;;;;;;;19.40;9.77;;;9.20;99.90;;;;;;5062140;28;20044;-69
2023/04/17 08:07:17;;;;;;;20.97;10.53;;;9.20;99.90;;;;;;5063529;28;20090;-68
2023/04/17 08:09:43;;;;;;;22.30;9.75;;;9.30;99.90;;;;;;5052952;28;20049;-68
2023/04/17 08:12:09;;;;;;;26.90;11.35;;;9.40;99.90;;;;;;5055580;28;20044;-68
2023/04/17 08:14:35;;;;;;;23.42;10.35;;;9.40;99.90;;;;;;5045688;22;20053;-69
2023/04/17 08:17:01;;;;;;;23.60;11.43;;;9.50;99.90;;;;;;5022206;28;20044;-69
2023/04/17 08:19:28;;;;;;;21.83;10.80;;;9.60;99.90;;;;;;5039481;28;20058;-69
2023/04/17 08:22:01;;;;;;;23.67;11.15;;;9.60;99.90;;;;;;5010539;28;20041;-69
2023/04/17 08:24:27;;;;;;;23.23;10.45;;;9.70;99.90;;;;;;5047213;28;20052;-69
2023/04/17 08:26:52;;;;;;;24.33;13.33;;;9.80;99.90;;;;;;5030647;28;20040;-70
2023/04/17 08:29:18;;;;;;;20.43;10.90;;;9.90;99.90;;;;;;5037879;28;20506;-70
2023/04/17 08:31:43;;;;;;;24.40;11.83;;;9.90;99.90;;;;;;5021821;28;20041;-70
2023/04/17 08:34:09;;;;;;;17.30;10.30;;;10.00;99.90;;;;;;5029637;28;20044;-70
2023/04/17 08:36:35;;;;;;;21.60;11.20;;;10.10;99.90;;;;;;5028972;28;20125;-70
2023/04/17 08:39:01;;;;;;;20.43;10.57;;;10.20;99.90;;;;;;5030293;28;20040;-70
2023/04/17 08:41:33;;;;;;;23.90;11.03;;;10.30;99.90;;;;;;5040153;28;20045;-70
2023/04/17 08:44:01;;;;;;;18.98;10.25;;;10.40;99.90;;;;;;5017135;28;20521;-69
2023/04/17 08:46:28;;;;;;;19.15;10.05;;;10.50;99.90;;;;;;5039710;28;20033;-70
2023/04/17 08:48:54;;;;;;;19.75;10.15;;;10.50;99.90;;;;;;5022256;28;20049;-70
2023/04/17 08:51:24;;;;;;;22.63;10.68;;;10.70;99.90;;;;;;5042404;28;20041;-70
2023/04/17 08:53:50;;;;;;;16.27;9.32;;;10.80;99.90;;;;;;5041965;28;20186;-70
2023/04/17 08:56:15;;;;;;;19.03;10.17;;;10.90;99.90;;;;;;5040713;28;20049;-70
2023/04/17 08:58:41;;;;;;;20.17;10.23;;;11.10;99.90;;;;;;5027635;28;20052;-70
2023/04/17 09:01:14;;;;;;;15.50;8.97;;;11.20;99.90;;;;;;5034023;28;20051;-70
2023/04/17 09:03:45;;;;;;;20.73;11.02;;;11.30;99.90;;;;;;5026073;28;20040;-70
2023/04/17 09:06:12;;;;;;;18.95;9.90;;;11.40;99.90;;;;;;5027540;28;20346;-70
2023/04/17 09:08:52;;;;;;;19.85;11.32;;;11.50;99.90;;;;;;5029019;28;20040;-70
2023/04/17 09:11:18;;;;;;;20.02;11.23;;;11.60;99.90;;;;;;5044971;28;20383;-70
2023/04/17 09:13:43;;;;;;;17.77;10.47;;;11.90;99.90;;;;;;5026133;28;20046;-72
2023/04/17 09:16:12;;;;;;;20.10;10.25;;;12.00;99.90;;;;;;5030544;28;20040;-70
2023/04/17 09:18:40;;;;;;;19.00;9.40;;;12.10;99.90;;;;;;5024565;28;20130;-70
2023/04/17 09:21:06;;;;;;;15.50;9.18;;;12.10;99.90;;;;;;5018739;28;20470;-70
2023/04/17 09:23:48;;;;;;;;;;;12.10;99.90;;;;;;5026149;28;20056;-70
2023/04/17 09:26:19;;;;;;;14.23;8.80;;;12.00;99.90;;;;;;5020750;28;20266;-70
2023/04/17 09:29:03;;;;;;;15.43;8.60;;;12.00;99.90;;;;;;5028891;28;20053;-70
2023/04/17 09:31:31;;;;;;;16.98;9.02;;;12.10;99.90;;;;;;5033362;28;20044;-70
2023/04/17 09:34:01;;;;;;;15.43;9.27;;;12.20;99.90;;;;;;5043378;28;20466;-70
2023/04/17 09:36:29;;;;;;;17.33;10.23;;;12.30;99.90;;;;;;5031169;28;20045;-69
2023/04/17 09:38:55;;;;;;;19.38;9.48;;;12.40;99.90;;;;;;5026842;28;20134;-70
2023/04/17 09:41:26;;;;;;;17.25;9.65;;;12.50;99.90;;;;;;5036903;28;20041;-70
2023/04/17 09:44:00;;;;;;;12.07;7.57;;;12.70;99.90;;;;;;5028385;28;20560;-70
2023/04/17 09:46:34;;;;;;;14.13;8.07;;;13.00;99.90;;;;;;5017849;28;20105;-70
2023/04/17 09:49:18;;;;;;;14.18;8.55;;;13.30;99.90;;;;;;5037404;28;20629;-70
2023/04/17 09:51:45;;;;;;;13.35;7.97;;;13.60;99.90;;;;;;5029839;28;20086;-71
2023/04/17 09:54:13;;;;;;;12.65;7.55;;;13.80;99.90;;;;;;5025247;28;20444;-70
2023/04/17 09:56:40;;;;;;;12.93;7.88;;;13.80;99.90;;;;;;5021979;28;20040;-70
2023/04/17 09:59:06;;;;;;;13.30;7.35;;;13.90;99.90;;;;;;5039970;28;20045;-70
2023/04/17 10:01:34;;;;;;;12.48;7.78;;;14.00;99.90;;;;;;5019214;28;20082;-70
2023/04/17 10:04:01;;;;;;;11.07;7.18;;;14.10;99.90;;;;;;5018722;28;20053;-70
2023/04/17 10:06:28;;;;;;;14.50;7.30;;;14.10;99.90;;;;;;5027051;28;20052;-71
2023/04/17 10:08:54;;;;;;;10.73;7.22;;;14.10;99.90;;;;;;5019486;28;20124;-70
2023/04/17 10:11:23;;;;;;;14.45;8.40;;;14.10;99.90;;;;;;5002069;28;20037;-69
2023/04/17 10:13:56;;;;;;;12.32;6.82;;;14.00;99.90;;;;;;5021662;28;20140;-69
2023/04/17 10:16:36;;;;;;;13.15;7.80;;;14.10;99.90;;;;;;5020929;28;20064;-70
2023/04/17 10:19:26;;;;;;;14.52;8.32;;;14.20;99.90;;;;;;5007129;28;20040;-70
2023/04/17 10:22:19;;;;;;;15.15;8.82;;;14.20;99.90;;;;;;5021670;28;20056;-70
2023/04/17 10:24:47;;;;;;;13.80;8.40;;;14.40;99.90;;;;;;5016869;28;20164;-70
2023/04/17 10:27:29;;;;;;;14.48;8.45;;;14.50;99.90;;;;;;5021292;28;20041;-70
2023/04/17 10:29:57;;;;;;;12.95;8.18;;;14.50;99.90;;;;;;5018328;28;20041;-70
2023/04/17 10:32:24;;;;;;;16.50;8.75;;;14.60;99.90;;;;;;5017902;28;20076;-70
2023/04/17 10:35:16;;;;;;;14.10;8.65;;;14.70;99.90;;;;;;5036973;28;20051;-70
2023/04/17 10:37:50;;;;;;;12.93;7.90;;;14.70;99.90;;;;;;5023173;28;20514;-70
2023/04/17 10:40:29;;;;;;;11.50;7.50;;;14.60;99.90;;;;;;5023866;28;20063;-70
2023/04/17 10:43:11;;;;;;;11.38;6.38;;;14.60;99.90;;;;;;5020315;28;20509;-70
2023/04/17 10:46:07;;;;;;;10.40;6.78;;;14.70;99.90;;;;;;5018222;28;20517;-70
2023/04/17 10:48:51;;;;;;;13.70;7.13;;;14.80;99.90;;;;;;5021218;28;20068;-70
2023/04/17 10:51:22;;;;;;;12.70;7.60;;;14.90;99.90;;;;;;5016115;28;20512;-70
2023/04/17 10:53:48;;;;;;;10.77;7.55;;;15.00;99.90;;;;;;5036248;28;20071;-70
2023/04/17 10:56:33;;;;;;;11.70;7.10;;;15.10;99.90;;;;;;5004341;28;20228;-70
2023/04/17 10:59:04;;;;;;;12.38;7.60;;;15.10;99.90;;;;;;5032193;28;20127;-70
2023/04/17 11:01:36;;;;;;;10.93;6.32;;;15.30;99.90;;;;;;5011234;28;20044;-70
2023/04/17 11:04:03;;;;;;;12.05;7.22;;;15.40;99.90;;;;;;5013997;28;20033;-70
2023/04/17 11:06:36;;;;;;;12.63;6.88;;;15.50;99.90;;;;;;5016485;28;20064;-70
2023/04/17 11:09:06;;;;;;;14.48;6.65;;;15.60;99.90;;;;;;5016394;28;20113;-70
2023/04/17 11:11:39;;;;;;;10.60;6.50;;;15.60;99.90;;;;;;5032102;28;20209;-70
2023/04/17 11:14:10;;;;;;;12.85;8.05;;;15.70;99.90;;;;;;5003169;28;20067;-70
2023/04/17 11:16:41;;;;;;;12.00;6.97;;;15.80;99.90;;;;;;5019327;28;20750;-70
2023/04/17 11:19:15;;;;;;;12.50;7.20;;;16.10;99.90;;;;;;5012857;28;20132;-70
2023/04/17 11:21:48;;;;;;;11.07;7.30;;;16.10;99.90;;;;;;5039298;28;20427;-70
2023/04/17 11:24:22;;;;;;;12.73;6.95;;;16.00;99.90;;;;;;5010054;28;20060;-70
2023/04/17 11:26:48;;;;;;;13.90;7.70;;;15.90;99.90;;;;;;5011236;28;20053;-70
2023/04/17 11:29:15;;;;;;;13.13;7.75;;;15.90;99.90;;;;;;5033819;28;20099;-70
2023/04/17 11:31:41;;;;;;;12.57;8.00;;;15.80;99.90;;;;;;5013027;28;20045;-71
2023/04/17 11:34:08;;;;;;;12.65;8.00;;;15.80;99.90;;;;;;5026654;28;20107;-71
2023/04/17 11:36:34;;;;;;;12.80;7.60;;;15.90;99.90;;;;;;5021995;28;20127;-70
2023/04/17 11:38:59;;;;;;;13.43;7.20;;;16.00;99.90;;;;;;5030092;28;20036;-70
2023/04/17 11:41:38;;;;;;;12.40;7.70;;;16.00;99.90;;;;;;5019588;28;20470;-71
2023/04/17 11:44:08;;;;;;;14.55;8.18;;;16.10;99.90;;;;;;5011695;28;20042;-70
2023/04/17 11:46:34;;;;;;;12.98;7.70;;;15.90;99.90;;;;;;5032649;28;20075;-70
2023/04/17 11:49:03;;;;;;;15.75;8.57;;;15.80;99.90;;;;;;5012837;28;20397;-70
2023/04/17 11:51:30;;;;;;;12.25;8.18;;;15.70;99.90;;;;;;5021241;28;20049;-70
2023/04/17 11:53:56;;;;;;;13.32;7.55;;;15.70;99.90;;;;;;5035503;28;20044;-70
2023/04/17 11:56:27;;;;;;;18.15;9.07;;;15.60;99.90;;;;;;5034258;28;20546;-70
2023/04/17 11:58:55;;;;;;;15.93;8.23;;;15.60;99.90;;;;;;5012193;28;20072;-70
2023/04/17 12:01:25;;;;;;;14.13;8.82;;;15.60;99.90;;;;;;5023339;28;20076;-70
2023/04/17 12:03:53;;;;;;;14.98;9.68;;;15.70;99.90;;;;;;5026182;28;20077;-70
2023/04/17 12:06:18;;;;;;;15.60;9.18;;;15.70;99.90;;;;;;5013276;28;20057;-70
2023/04/17 12:08:50;;;;;;;14.70;9.18;;;15.80;99.90;;;;;;5029832;28;20491;-70
2023/04/17 12:11:30;;;;;;;14.60;8.55;;;15.90;99.90;;;;;;5022925;28;20453;-70
2023/04/17 12:13:59;;;;;;;13.38;9.10;;;16.30;99.90;;;;;;5001032;28;20045;-70
2023/04/17 12:16:26;;;;;;;16.88;8.55;;;16.50;99.90;;;;;;5028838;28;20045;-70
2023/04/17 12:18:52;;;;;;;15.90;9.38;;;16.80;99.90;;;;;;5029660;28;20165;-70
2023/04/17 12:21:25;;;;;;;;;;;16.90;99.90;;;;;;5016346;28;20458;-70
2023/04/17 12:23:51;;;;;;;16.63;10.25;;;17.00;99.90;;;;;;5017460;28;19947;-70
2023/04/17 12:26:16;;;;;;;16.90;9.65;;;17.10;99.90;;;;;;5012197;28;20041;-70
2023/04/17 12:28:42;;;;;;;14.07;9.20;;;17.10;99.90;;;;;;5013713;28;20292;-70
2023/04/17 12:31:08;;;;;;;14.85;9.07;;;17.40;99.90;;;;;;5034287;28;20033;-70
2023/04/17 12:33:34;;;;;;;17.85;9.30;;;17.50;99.90;;;;;;5038197;28;20041;-70
2023/04/17 12:36:01;;;;;;;15.07;9.00;;;17.60;99.90;;;;;;5033943;28;20048;-70
2023/04/17 12:38:26;;;;;;;14.43;8.98;;;17.60;99.90;;;;;;5036226;28;20147;-71
2023/04/17 12:40:52;;;;;;;15.52;9.35;;;17.70;99.90;;;;;;5036412;28;20625;-70
2023/04/17 12:43:17;;;;;;;16.13;9.07;;;17.70;99.90;;;;;;5016214;28;20494;-71